Time;durP1;ratioP1;P1;durP2;ratioP2;P2;SDS_P1;SDS_P2;PMS_P1;PMS_P2;Temp;Humidity;BMP_temperature;BMP_pressure;BME280_temperature;BME280_humidity;BME280_pressure;Samples;Min_cycle;Max_cycle;Signal;HPM_P1;HPM_P2
2022/11/27 00:02:21;;;;;;;14.45;5.15;;;;;;;7.45;100.00;102429.97;4987728;28;20473;-64
2022/11/27 00:04:46;;;;;;;22.75;5.28;;;;;;;7.41;100.00;102423.81;4988548;28;20042;-58
2022/11/27 00:07:12;;;;;;;19.38;5.72;;;;;;;7.42;100.00;102422.09;4989122;28;20038;-61
2022/11/27 00:09:38;;;;;;;19.55;5.03;;;;;;;7.47;100.00;102412.50;5001953;28;20033;-63
2022/11/27 00:12:03;;;;;;;21.10;5.20;;;;;;;7.45;100.00;102409.00;4987173;28;20033;-63
2022/11/27 00:14:29;;;;;;;19.63;6.03;;;;;;;7.44;100.00;102402.00;4986388;28;20129;-62
2022/11/27 00:16:54;;;;;;;16.65;4.63;;;;;;;7.35;100.00;102394.09;4987621;28;20042;-63
2022/11/27 00:19:19;;;;;;;17.50;5.53;;;;;;;7.38;100.00;102399.34;4988876;28;20033;-63
2022/11/27 00:21:45;;;;;;;19.88;5.82;;;;;;;7.28;100.00;102390.53;4991660;28;20469;-63
2022/11/27 00:24:10;;;;;;;14.43;5.45;;;;;;;7.18;100.00;102392.25;4991295;28;20080;-63
2022/11/27 00:26:36;;;;;;;19.17;5.28;;;;;;;7.18;100.00;102390.50;4990781;28;20023;-63
2022/11/27 00:29:01;;;;;;;21.05;5.05;;;;;;;7.17;100.00;102388.75;4999155;28;20034;-63
2022/11/27 00:31:29;;;;;;;16.50;5.18;;;;;;;7.05;100.00;102386.94;4990664;28;20036;-64
2022/11/27 00:33:56;;;;;;;14.35;4.88;;;;;;;7.01;100.00;102381.69;4989654;28;20030;-64
2022/11/27 00:36:22;;;;;;;18.98;5.40;;;;;;;7.04;100.00;102379.06;4991139;28;20026;-64
2022/11/27 00:38:47;;;;;;;16.20;5.10;;;;;;;7.13;100.00;102383.50;4973973;28;20032;-62
2022/11/27 00:41:18;;;;;;;14.23;4.95;;;;;;;7.02;100.00;102373.84;4990528;28;20022;-65
2022/11/27 00:43:44;;;;;;;19.08;4.93;;;;;;;7.05;100.00;102362.47;4991291;28;20041;-62
2022/11/27 00:46:11;;;;;;;20.13;5.90;;;;;;;7.01;100.00;102363.34;4990848;28;20026;-63
2022/11/27 00:48:37;;;;;;;17.67;5.40;;;;;;;7.08;100.00;102363.34;4991096;28;20018;-63
2022/11/27 00:51:05;;;;;;;15.77;5.07;;;;;;;7.04;100.00;102360.69;4991299;28;20257;-64
2022/11/27 00:53:31;;;;;;;14.05;5.35;;;;;;;7.19;100.00;102357.28;4994872;28;20026;-61
2022/11/27 00:55:57;;;;;;;20.75;5.43;;;;;;;7.22;100.00;102364.31;4971645;28;20368;-60
2022/11/27 00:58:23;;;;;;;14.65;5.10;;;;;;;7.20;100.00;102367.78;4989708;28;20090;-64
2022/11/27 01:00:56;;;;;;;21.48;4.95;;;;;;;7.19;100.00;102386.13;4990387;28;20073;-63
2022/11/27 01:03:21;;;;;;;13.98;4.65;;;;;;;7.25;100.00;102377.44;4990606;28;20469;-63
2022/11/27 01:05:47;;;;;;;14.05;4.45;;;;;;;7.32;100.00;102355.63;4990914;28;20118;-63
2022/11/27 01:08:12;;;;;;;23.95;7.57;;;;;;;7.37;100.00;102358.25;4990766;28;20080;-61
2022/11/27 01:10:37;;;;;;;15.57;4.82;;;;;;;7.17;100.00;102361.66;4989660;28;20481;-63
2022/11/27 01:13:03;;;;;;;20.23;4.78;;;;;;;7.22;100.00;102341.56;4990047;28;20023;-63
2022/11/27 01:15:28;;;;;;;14.18;4.22;;;;;;;7.35;100.00;102358.25;4993045;28;20432;-62
2022/11/27 01:17:53;;;;;;;13.02;4.90;;;;;;;7.33;100.00;102359.97;4994579;28;20484;-63
2022/11/27 01:20:19;;;;;;;16.08;4.85;;;;;;;7.33;100.00;102358.25;4989788;28;20034;-63
2022/11/27 01:22:44;;;;;;;15.55;5.85;;;;;;;7.33;100.00;102358.25;4989428;28;20481;-62
2022/11/27 01:25:09;;;;;;;17.70;4.40;;;;;;;7.26;100.00;102353.84;4989609;28;20029;-63
2022/11/27 01:27:35;;;;;;;13.68;4.00;;;;;;;7.23;100.00;102345.97;4990340;28;20101;-61
2022/11/27 01:30:00;;;;;;;12.25;3.70;;;;;;;7.22;100.00;102338.94;4989621;28;20122;-62
2022/11/27 01:32:25;;;;;;;16.52;4.82;;;;;;;7.25;100.00;102335.50;4989408;28;20054;-65
2022/11/27 01:34:51;;;;;;;21.65;4.78;;;;;;;7.28;100.00;102325.00;4971849;28;20060;-63
2022/11/27 01:37:16;;;;;;;16.88;5.28;;;;;;;7.31;100.00;102317.13;5004749;28;20116;-61
2022/11/27 01:39:41;;;;;;;11.68;3.83;;;;;;;7.33;100.00;102318.91;5007862;28;20025;-64
2022/11/27 01:42:09;;;;;;;20.98;4.22;;;;;;;7.33;100.00;102320.66;5007203;28;20096;-63
2022/11/27 01:44:35;;;;;;;25.30;4.38;;;;;;;7.28;100.00;102304.91;5008698;28;20100;-63
2022/11/27 01:47:11;;;;;;;16.13;5.63;;;;;;;7.23;100.00;102300.50;5009047;28;20117;-62
2022/11/27 01:49:40;;;;;;;17.33;4.47;;;;;;;7.18;100.00;102290.00;5009367;28;20030;-64
2022/11/27 01:52:13;;;;;;;;;;;;;;;7.20;100.00;102296.13;4992091;28;20075;-63
2022/11/27 01:55:00;;;;;;;10.02;3.47;;;;;;;7.26;100.00;102290.94;5008596;28;19917;-62
2022/11/27 01:57:34;;;;;;;13.77;4.20;;;;;;;7.11;100.00;102293.47;4995277;28;20038;-63
2022/11/27 02:00:00;;;;;;;16.75;4.22;;;;;;;7.13;100.00;102297.00;4971546;28;20026;-61
2022/11/27 02:02:26;;;;;;;12.02;3.97;;;;;;;7.11;100.00;102283.00;5070506;22;20499;-62
2022/11/27 02:04:52;;;;;;;13.27;3.78;;;;;;;7.10;100.00;102273.38;4988164;28;20033;-63
2022/11/27 02:07:17;;;;;;;20.20;4.53;;;;;;;7.03;100.00;102265.50;4988364;28;20393;-61
2022/11/27 02:09:43;;;;;;;11.82;4.18;;;;;;;7.08;100.00;102262.91;4971422;28;20027;-62
2022/11/27 02:12:25;;;;;;;16.17;4.35;;;;;;;7.17;100.00;102277.78;4971748;28;20411;-62
2022/11/27 02:15:03;;;;;;;15.80;4.20;;;;;;;7.10;100.00;102273.38;4972464;28;20031;-63
2022/11/27 02:17:54;;;;;;;16.73;3.97;;;;;;;7.13;100.00;102274.25;4989048;28;20022;-62
2022/11/27 02:20:22;;;;;;;13.50;4.18;;;;;;;7.14;100.00;102277.75;4966565;28;20049;-62
2022/11/27 02:23:09;;;;;;;15.10;4.03;;;;;;;7.17;100.00;102278.63;4988760;28;20712;-61
2022/11/27 02:26:11;;;;;;;13.75;3.70;;;;;;;7.26;100.00;102277.81;4987420;28;20068;-62
2022/11/27 02:28:37;;;;;;;21.00;4.57;;;;;;;7.23;100.00;102279.53;4988898;28;20030;-62
2022/11/27 02:31:12;;;;;;;14.13;4.03;;;;;;;7.24;100.00;102279.53;4988493;28;20027;-64
2022/11/27 02:33:43;;;;;;;14.93;3.97;;;;;;;7.29;100.00;102287.44;4988962;28;20065;-63
2022/11/27 02:36:13;;;;;;;18.27;4.47;;;;;;;7.37;100.00;102290.09;4971661;28;20122;-63
2022/11/27 02:38:42;;;;;;;11.35;4.00;;;;;;;7.42;100.00;102285.72;4970821;28;22421;-62
2022/11/27 02:41:30;;;;;;;14.63;3.60;;;;;;;7.44;100.00;102286.59;4994627;28;20034;-65
2022/11/27 02:43:56;;;;;;;13.77;4.15;;;;;;;7.43;100.00;102275.22;4988217;28;20453;-63
2022/11/27 02:46:21;;;;;;;15.88;3.88;;;;;;;7.46;100.00;102287.47;4996198;28;20122;-64
2022/11/27 02:48:49;;;;;;;13.18;3.90;;;;;;;7.45;100.00;102270.88;4989636;28;20037;-61
2022/11/27 02:51:18;;;;;;;11.23;3.90;;;;;;;7.41;100.00;102278.72;4990489;28;20031;-64
2022/11/27 02:53:50;;;;;;;12.15;3.83;;;;;;;7.38;100.00;102268.22;4988416;28;20031;-63
2022/11/27 02:56:21;;;;;;;15.05;4.38;;;;;;;7.42;100.00;102255.13;4970378;28;20033;-63
2022/11/27 02:58:46;;;;;;;12.73;3.85;;;;;;;7.43;100.00;102258.59;4971732;28;20053;-63
2022/11/27 03:01:13;;;;;;;18.67;5.40;;;;;;;7.41;100.00;102250.72;5000493;28;20053;-60
2022/11/27 03:03:42;;;;;;;15.45;3.60;;;;;;;7.45;100.00;102247.25;4990366;28;20054;-63
2022/11/27 03:06:11;;;;;;;12.68;3.60;;;;;;;7.50;100.00;102260.41;4989305;28;20030;-63
2022/11/27 03:08:37;;;;;;;14.23;4.07;;;;;;;7.56;100.00;102259.53;5008178;28;20026;-62
2022/11/27 03:11:08;;;;;;;11.48;3.88;;;;;;;7.52;100.00;102258.63;4989420;28;20273;-63
2022/11/27 03:13:37;;;;;;;13.85;3.88;;;;;;;7.52;100.00;102263.88;4990611;28;20456;-62
2022/11/27 03:16:05;;;;;;;10.82;3.42;;;;;;;7.52;100.00;102263.88;5007508;28;20022;-63
2022/11/27 03:18:38;;;;;;;17.20;4.28;;;;;;;7.54;100.00;102263.88;5007888;28;20033;-63
2022/11/27 03:21:11;;;;;;;14.95;3.50;;;;;;;7.58;100.00;102256.03;5007752;28;20041;-62
2022/11/27 03:23:37;;;;;;;15.23;4.20;;;;;;;7.63;100.00;102248.16;4980616;28;20069;-60
2022/11/27 03:26:02;;;;;;;11.55;3.65;;;;;;;7.57;100.00;102240.28;4987269;28;20031;-63
2022/11/27 03:28:28;;;;;;;14.90;3.67;;;;;;;7.62;100.00;102238.56;4986969;28;20026;-63
2022/11/27 03:30:54;;;;;;;6.05;3.00;;;;;;;7.56;100.00;102249.88;4987653;28;20022;-63
2022/11/27 03:33:19;;;;;;;15.82;3.80;;;;;;;7.68;100.00;102243.78;4974663;28;20530;-64
2022/11/27 03:35:44;;;;;;;13.27;3.53;;;;;;;7.64;100.00;102241.16;4993308;28;20014;-62
2022/11/27 03:38:10;;;;;;;12.32;3.30;;;;;;;7.66;100.00;102247.28;4986972;28;20405;-61
2022/11/27 03:40:54;;;;;;;10.55;3.20;;;;;;;7.69;100.00;102239.41;4986895;28;20109;-63
2022/11/27 03:43:25;;;;;;;11.48;3.22;;;;;;;7.77;100.00;102239.44;4986291;28;20115;-62
2022/11/27 03:45:59;;;;;;;14.82;3.50;;;;;;;7.67;100.00;102241.16;4987791;28;20026;-61
2022/11/27 03:48:47;;;;;;;11.25;3.72;;;;;;;7.76;100.00;102232.41;4971063;28;20475;-64
2022/11/27 03:51:28;;;;;;;14.70;3.53;;;;;;;7.70;100.00;102233.28;4971120;28;20056;-65
2022/11/27 03:54:04;;;;;;;9.70;2.90;;;;;;;7.62;100.00;102243.78;4972758;28;20062;-60
2022/11/27 03:57:00;;;;;;;9.77;3.38;;;;;;;7.67;100.00;102236.78;4988583;28;20030;-62
2022/11/27 03:59:29;;;;;;;11.50;3.30;;;;;;;7.73;100.00;102237.69;4972687;28;20038;-63
2022/11/27 04:01:54;;;;;;;10.15;2.95;;;;;;;7.64;100.00;102228.03;4974418;28;20595;-67
2022/11/27 04:04:20;;;;;;;11.38;3.17;;;;;;;7.57;100.00;102221.91;4991429;28;20129;-63
2022/11/27 04:06:45;;;;;;;8.75;2.88;;;;;;;7.73;100.00;102229.81;4993079;28;20031;-63
2022/11/27 04:09:10;;;;;;;11.32;3.03;;;;;;;7.81;100.00;102235.91;4991775;28;20033;-66
2022/11/27 04:11:36;;;;;;;7.00;2.63;;;;;;;7.76;100.00;102228.03;4992482;28;20050;-63
2022/11/27 04:14:01;;;;;;;7.80;2.70;;;;;;;7.81;100.00;102228.94;4992357;28;20026;-60
2022/11/27 04:16:26;;;;;;;13.02;2.67;;;;;;;7.86;100.00;102230.69;4992239;28;20697;-63
2022/11/27 04:18:52;;;;;;;11.40;2.90;;;;;;;7.81;100.00;102223.69;4998671;28;20027;-63
2022/11/27 04:21:17;;;;;;;8.35;3.10;;;;;;;7.93;100.00;102222.81;4991907;28;20516;-62
2022/11/27 04:23:43;;;;;;;9.73;2.80;;;;;;;7.85;100.00;102224.53;4991102;28;20442;-61
2022/11/27 04:26:08;;;;;;;9.38;2.95;;;;;;;7.78;100.00;102228.94;4990997;28;20424;-63
2022/11/27 04:28:34;;;;;;;11.27;2.95;;;;;;;7.90;100.00;102224.53;4991546;28;20105;-63
2022/11/27 04:30:59;;;;;;;9.43;3.15;;;;;;;7.81;100.00;102235.91;4991723;28;20110;-58
2022/11/27 04:33:24;;;;;;;12.05;3.10;;;;;;;7.88;100.00;102216.66;4991930;28;20041;-60
2022/11/27 04:35:50;;;;;;;6.78;2.85;;;;;;;7.94;100.00;102218.41;4991062;28;20113;-63
2022/11/27 04:38:16;;;;;;;10.10;3.95;;;;;;;7.90;100.00;102217.56;4995089;28;20596;-63
2022/11/27 04:40:42;;;;;;;8.88;3.45;;;;;;;7.91;100.00;102205.28;4992661;28;20030;-60
2022/11/27 04:43:07;;;;;;;11.15;3.08;;;;;;;7.89;100.00;102215.78;4990305;28;20724;-63
2022/11/27 04:45:32;;;;;;;14.20;2.85;;;;;;;7.83;100.00;102206.16;4990789;28;20031;-65
2022/11/27 04:47:58;;;;;;;8.35;2.80;;;;;;;7.83;100.00;102194.81;4990955;28;20034;-65
2022/11/27 04:50:23;;;;;;;10.52;3.33;;;;;;;7.63;100.00;102203.56;4991369;28;20488;-64
2022/11/27 04:52:48;;;;;;;11.85;3.05;;;;;;;7.73;100.00;102196.56;4990934;28;20028;-60
2022/11/27 04:55:13;;;;;;;11.45;3.33;;;;;;;7.78;100.00;102197.44;4990413;28;20424;-62
2022/11/27 04:57:39;;;;;;;8.43;2.60;;;;;;;7.76;100.00;102188.69;4990675;28;20520;-63
2022/11/27 05:00:05;;;;;;;10.75;3.75;;;;;;;7.69;100.00;102181.69;4972712;28;20539;-63
2022/11/27 05:02:30;;;;;;;8.65;2.92;;;;;;;7.59;100.00;102184.31;4995913;28;20037;-60
2022/11/27 05:04:56;;;;;;;9.50;2.85;;;;;;;7.64;100.00;102191.31;4990415;28;20401;-63
2022/11/27 05:07:21;;;;;;;8.27;2.90;;;;;;;7.71;100.00;102177.34;4988953;28;20480;-62
2022/11/27 05:09:47;;;;;;;8.15;2.80;;;;;;;7.68;100.00;102180.81;4990014;28;20037;-64
2022/11/27 05:12:12;;;;;;;14.45;3.38;;;;;;;7.69;100.00;102173.81;4996238;28;20158;-62
2022/11/27 05:14:37;;;;;;;6.55;2.60;;;;;;;7.66;100.00;102179.94;4990360;28;20061;-62
2022/11/27 05:17:03;;;;;;;15.43;3.55;;;;;;;7.62;100.00;102169.47;4972274;28;20038;-63
2022/11/27 05:19:29;;;;;;;12.95;3.35;;;;;;;7.70;100.00;102170.31;4990052;28;20404;-64
2022/11/27 05:21:55;;;;;;;13.13;2.90;;;;;;;7.59;100.00;102165.09;4989680;28;20027;-65
2022/11/27 05:24:22;;;;;;;11.15;2.72;;;;;;;7.58;100.00;102158.97;4989457;28;20033;-58
2022/11/27 05:26:47;;;;;;;8.63;2.45;;;;;;;7.62;100.00;102165.09;4989575;28;20476;-61
2022/11/27 05:29:13;;;;;;;11.35;3.08;;;;;;;7.58;100.00;102164.22;4990508;28;20516;-62
2022/11/27 05:31:39;;;;;;;11.95;2.90;;;;;;;7.64;100.00;102162.44;4990363;28;20465;-63
2022/11/27 05:34:04;;;;;;;10.05;3.22;;;;;;;7.62;100.00;102156.34;4971519;28;20026;-64
2022/11/27 05:36:31;;;;;;;8.00;2.92;;;;;;;7.51;100.00;102157.22;4989809;28;20509;-59
2022/11/27 05:38:56;;;;;;;12.60;3.15;;;;;;;7.63;100.00;102151.09;4971441;28;20386;-64
2022/11/27 05:41:22;;;;;;;10.00;3.30;;;;;;;7.57;100.00;102157.22;4989361;28;20038;-65
2022/11/27 05:43:47;;;;;;;7.82;2.70;;;;;;;7.56;100.00;102152.81;4988872;28;20038;-59
2022/11/27 05:46:16;;;;;;;7.10;2.38;;;;;;;7.66;100.00;102144.97;4989645;28;20031;-62
2022/11/27 05:48:41;;;;;;;5.20;2.60;;;;;;;7.58;100.00;102139.72;4989112;28;20089;-63
2022/11/27 05:51:07;;;;;;;6.57;2.90;;;;;;;7.54;100.00;102140.59;4988671;28;20018;-60
2022/11/27 05:53:32;;;;;;;5.57;2.72;;;;;;;7.48;100.00;102144.09;4989594;28;20124;-63
2022/11/27 05:56:02;;;;;;;10.20;3.13;;;;;;;7.45;100.00;102141.47;4988813;28;20097;-63
2022/11/27 05:58:27;;;;;;;;;;;;;;;7.44;100.00;102139.72;4989085;28;20382;-61
2022/11/27 06:00:52;;;;;;;9.82;2.75;;;;;;;7.53;100.00;102142.34;4995184;28;19945;-63
2022/11/27 06:03:17;;;;;;;6.00;2.47;;;;;;;7.55;100.00;102137.97;4987886;28;20049;-61
2022/11/27 06:05:43;;;;;;;11.82;2.83;;;;;;;7.54;100.00;102137.97;4988860;28;20022;-63
2022/11/27 06:08:08;;;;;;;10.18;2.63;;;;;;;7.52;100.00;102130.09;4994509;28;20044;-61
2022/11/27 06:10:33;;;;;;;11.27;2.75;;;;;;;7.54;100.00;102131.00;4990788;28;20348;-62
2022/11/27 06:12:59;;;;;;;9.02;2.72;;;;;;;7.50;100.00;102124.00;4989059;28;20483;-65
2022/11/27 06:15:24;;;;;;;10.05;2.50;;;;;;;7.49;100.00;102119.59;4988844;28;20027;-63
2022/11/27 06:17:49;;;;;;;9.40;3.00;;;;;;;7.37;100.00;102125.72;4988731;28;20377;-64
2022/11/27 06:20:15;;;;;;;7.38;2.60;;;;;;;7.39;100.00;102117.88;4989608;28;20472;-63
2022/11/27 06:22:40;;;;;;;5.50;2.38;;;;;;;7.44;100.00;102116.13;4988864;28;20070;-64
2022/11/27 06:25:06;;;;;;;11.63;2.70;;;;;;;7.43;100.00;102120.50;4970467;28;20055;-63
2022/11/27 06:27:33;;;;;;;7.80;2.55;;;;;;;7.47;100.00;102126.63;4988140;28;20397;-63
2022/11/27 06:29:58;;;;;;;9.77;2.78;;;;;;;7.43;100.00;102109.13;4988114;28;20029;-63
2022/11/27 06:32:23;;;;;;;5.63;2.33;;;;;;;7.51;100.00;102115.25;4989125;28;20026;-62
2022/11/27 06:34:48;;;;;;;6.82;2.35;;;;;;;7.56;100.00;102110.84;4988390;28;20019;-62
2022/11/27 06:37:14;;;;;;;7.88;2.63;;;;;;;7.45;100.00;102110.00;4981009;28;20030;-60
2022/11/27 06:39:39;;;;;;;8.65;2.90;;;;;;;7.52;100.00;102101.25;4987574;28;20025;-62
2022/11/27 06:42:04;;;;;;;7.03;3.03;;;;;;;7.49;100.00;102103.03;4988847;28;20061;-60
2022/11/27 06:44:30;;;;;;;6.82;2.42;;;;;;;7.47;100.00;102097.78;4988587;28;20022;-62
2022/11/27 06:46:55;;;;;;;9.23;3.47;;;;;;;7.41;100.00;102097.78;4983980;28;20030;-62
2022/11/27 06:49:20;;;;;;;5.85;2.35;;;;;;;7.55;100.00;102090.75;4988540;28;20045;-63
2022/11/27 06:51:47;;;;;;;6.75;2.70;;;;;;;7.49;100.00;102084.66;4988525;28;20049;-61
2022/11/27 06:54:12;;;;;;;8.57;3.05;;;;;;;7.49;100.00;102080.28;4987960;28;20048;-63
2022/11/27 06:56:38;;;;;;;5.80;2.75;;;;;;;7.52;100.00;102076.75;4988986;28;20471;-63
2022/11/27 06:59:03;;;;;;;5.18;2.47;;;;;;;7.51;100.00;102073.28;4987467;28;20521;-60
2022/11/27 07:01:29;;;;;;;9.73;2.85;;;;;;;7.45;100.00;102070.66;4985094;28;20038;-61
2022/11/27 07:03:55;;;;;;;7.60;3.20;;;;;;;7.33;100.00;102074.16;4987153;28;20473;-63
2022/11/27 07:06:23;;;;;;;9.50;3.88;;;;;;;7.28;100.00;102066.28;4986121;28;20109;-64
2022/11/27 07:08:48;;;;;;;12.38;3.30;;;;;;;7.41;100.00;102066.31;4987246;28;20492;-58
2022/11/27 07:11:22;;;;;;;9.20;2.90;;;;;;;7.42;100.00;102049.69;4988769;28;20107;-63
2022/11/27 07:13:48;;;;;;;9.55;2.85;;;;;;;7.31;100.00;102061.06;4986953;28;20026;-60
2022/11/27 07:16:14;;;;;;;12.10;3.15;;;;;;;7.41;100.00;102037.47;4987998;28;20508;-65
2022/11/27 07:18:42;;;;;;;13.13;3.47;;;;;;;7.39;100.00;102041.81;4970341;28;20113;-66
2022/11/27 07:21:08;;;;;;;7.35;3.28;;;;;;;7.50;100.00;102042.69;4987320;28;20032;-64
2022/11/27 07:23:34;;;;;;;7.43;2.80;;;;;;;7.50;100.00;102045.31;4985064;28;20026;-64
2022/11/27 07:26:05;;;;;;;12.57;3.58;;;;;;;7.30;100.00;102033.09;4987093;28;20112;-63
2022/11/27 07:28:30;;;;;;;6.22;3.30;;;;;;;7.47;100.00;102029.59;4984683;28;20026;-66
2022/11/27 07:30:57;;;;;;;7.00;2.97;;;;;;;7.41;100.00;102029.59;4986642;28;20362;-65
2022/11/27 07:33:23;;;;;;;9.60;2.88;;;;;;;7.42;100.00;102028.69;4987444;28;20429;-65
2022/11/27 07:35:48;;;;;;;7.45;3.00;;;;;;;7.43;100.00;102027.81;4984558;28;20025;-61
2022/11/27 07:38:14;;;;;;;9.95;3.33;;;;;;;7.46;100.00;102025.19;4987177;28;20026;-64
2022/11/27 07:40:39;;;;;;;8.07;3.40;;;;;;;7.59;100.00;102024.28;4987583;28;20105;-61
2022/11/27 07:43:04;;;;;;;5.97;2.92;;;;;;;7.44;100.00;102019.94;4987366;28;20026;-64
2022/11/27 07:45:30;;;;;;;9.05;3.65;;;;;;;7.48;100.00;102026.06;4987591;28;20026;-62
2022/11/27 07:47:55;;;;;;;8.07;3.00;;;;;;;7.48;100.00;102028.69;4987717;28;20026;-64
2022/11/27 07:50:20;;;;;;;10.93;3.30;;;;;;;7.46;100.00;102030.44;4988146;28;20026;-65
2022/11/27 07:52:46;;;;;;;7.75;3.40;;;;;;;7.42;100.00;102032.22;4986193;28;20037;-62
2022/11/27 07:55:11;;;;;;;10.80;3.83;;;;;;;7.48;100.00;102036.56;4986447;28;20030;-61
2022/11/27 07:57:36;;;;;;;6.93;3.28;;;;;;;7.52;100.00;102029.53;4987084;28;20101;-65
2022/11/27 08:00:03;;;;;;;8.95;3.50;;;;;;;7.49;100.00;102027.81;4980984;28;20031;-65
2022/11/27 08:02:28;;;;;;;8.60;3.17;;;;;;;7.59;100.00;102026.91;4986992;28;20041;-64
2022/11/27 08:04:54;;;;;;;8.98;3.47;;;;;;;7.59;100.00;102024.28;4987061;28;20018;-64
2022/11/27 08:07:19;;;;;;;10.82;3.05;;;;;;;7.65;100.00;102033.03;4987074;28;20018;-64
2022/11/27 08:09:44;;;;;;;7.15;3.55;;;;;;;7.64;100.00;102026.03;4969843;28;20019;-65
2022/11/27 08:12:09;;;;;;;7.93;3.13;;;;;;;7.69;100.00;102029.53;4987251;28;20112;-64
2022/11/27 08:14:35;;;;;;;9.15;3.20;;;;;;;7.72;100.00;102024.28;4986750;28;20049;-64
2022/11/27 08:17:00;;;;;;;9.43;3.28;;;;;;;7.72;100.00;102021.66;4983915;28;20030;-63
2022/11/27 08:19:26;;;;;;;10.13;3.35;;;;;;;7.82;100.00;102020.75;4986676;28;20022;-65
2022/11/27 08:21:51;;;;;;;8.82;3.20;;;;;;;7.82;100.00;102022.47;4986271;28;20033;-64
2022/11/27 08:24:16;;;;;;;6.20;2.92;;;;;;;7.86;100.00;102010.25;4986813;28;20030;-60
2022/11/27 08:26:42;;;;;;;6.63;3.20;;;;;;;7.75;100.00;102019.00;4986867;28;20038;-61
2022/11/27 08:29:10;;;;;;;12.15;4.47;;;;;;;7.72;100.00;102019.03;4986318;28;20336;-64
2022/11/27 08:31:36;;;;;;;12.00;3.63;;;;;;;7.79;100.00;102014.63;4986786;28;20035;-64
2022/11/27 08:34:01;;;;;;;9.57;3.78;;;;;;;7.72;100.00;102024.28;4985893;28;20117;-65
2022/11/27 08:36:27;;;;;;;10.60;3.85;;;;;;;7.82;100.00;102025.09;4985710;28;20398;-61
2022/11/27 08:38:53;;;;;;;5.60;3.05;;;;;;;7.85;100.00;102027.72;4985733;28;20030;-64
2022/11/27 08:41:19;;;;;;;8.88;3.17;;;;;;;7.82;100.00;102020.75;4988759;28;20053;-63
2022/11/27 08:43:44;;;;;;;9.20;3.40;;;;;;;7.77;100.00;102012.00;4990064;28;20057;-58
2022/11/27 08:46:10;;;;;;;12.65;4.30;;;;;;;7.80;100.00;102017.22;4971395;28;20054;-65
2022/11/27 08:48:36;;;;;;;11.57;3.95;;;;;;;7.82;100.00;102020.75;4989259;28;20030;-64
2022/11/27 08:51:12;;;;;;;10.05;3.70;;;;;;;7.87;100.00;102020.72;4971728;28;20010;-60
2022/11/27 08:53:38;;;;;;;10.00;3.67;;;;;;;7.75;100.00;102013.78;4986787;28;20374;-61
2022/11/27 08:56:13;;;;;;;11.27;3.70;;;;;;;7.73;100.00;102010.25;4989061;28;20018;-62
2022/11/27 08:58:39;;;;;;;10.35;4.05;;;;;;;7.79;100.00;102020.75;4987744;28;20404;-63
2022/11/27 09:01:25;;;;;;;10.77;4.07;;;;;;;7.83;100.00;102006.72;4988679;28;20014;-63
2022/11/27 09:03:51;;;;;;;11.93;4.85;;;;;;;7.84;100.00;102012.88;4986621;28;20148;-63
2022/11/27 09:06:20;;;;;;;10.30;4.03;;;;;;;7.84;100.00;102011.13;4988691;28;20027;-63
2022/11/27 09:08:46;;;;;;;9.35;3.70;;;;;;;7.78;100.00;102005.00;4989257;28;20051;-62
2022/11/27 09:11:12;;;;;;;11.90;3.65;;;;;;;7.86;100.00;102000.63;4989948;28;20022;-63
2022/11/27 09:13:39;;;;;;;12.20;4.78;;;;;;;7.74;100.00;102004.16;4990000;28;20022;-63
2022/11/27 09:16:06;;;;;;;8.57;4.30;;;;;;;7.81;100.00;101995.38;4989287;28;20030;-63
2022/11/27 09:18:32;;;;;;;11.00;3.78;;;;;;;7.87;100.00;101996.22;4985406;28;20061;-65
2022/11/27 09:21:03;;;;;;;12.80;4.43;;;;;;;7.92;100.00;101990.06;4988487;28;20065;-61
2022/11/27 09:23:28;;;;;;;11.80;4.30;;;;;;;8.01;100.00;101997.03;4988019;28;20034;-64
2022/11/27 09:25:58;;;;;;;9.43;3.88;;;;;;;7.87;100.00;101990.97;4988843;28;20032;-63
2022/11/27 09:28:23;;;;;;;8.95;3.85;;;;;;;8.00;100.00;101994.44;4988933;28;20022;-63
2022/11/27 09:30:53;;;;;;;13.75;4.35;;;;;;;7.90;100.00;101988.34;4988116;28;20023;-61
2022/11/27 09:33:19;;;;;;;11.32;4.18;;;;;;;7.82;100.00;101989.25;4988557;28;20465;-63
2022/11/27 09:35:45;;;;;;;8.80;3.97;;;;;;;7.92;100.00;101990.06;4986959;28;20026;-60
2022/11/27 09:38:10;;;;;;;9.63;4.30;;;;;;;7.89;100.00;101982.22;4987627;28;20033;-60
2022/11/27 09:40:35;;;;;;;10.43;4.25;;;;;;;7.87;100.00;101985.72;4988135;28;20068;-59
2022/11/27 09:43:08;;;;;;;12.48;4.40;;;;;;;7.93;100.00;101983.97;4988711;28;20117;-63
2022/11/27 09:45:35;;;;;;;9.82;4.47;;;;;;;7.97;100.00;101976.94;4965444;28;20026;-62
2022/11/27 09:48:04;;;;;;;12.60;4.25;;;;;;;8.01;100.00;101969.94;4967284;28;20030;-62
2022/11/27 09:50:49;;;;;;;9.95;4.55;;;;;;;8.02;100.00;101962.06;4970318;28;20149;-65
2022/11/27 09:53:31;;;;;;;12.68;4.43;;;;;;;8.07;100.00;101967.28;4967409;28;20031;-63
2022/11/27 09:55:58;;;;;;;12.80;4.90;;;;;;;8.16;100.00;101966.34;4987590;28;20026;-60
2022/11/27 09:58:45;;;;;;;9.55;4.28;;;;;;;8.09;100.00;101963.75;4980440;28;20259;-62
2022/11/27 10:01:16;;;;;;;11.20;4.20;;;;;;;8.06;100.00;101963.78;4964449;28;20118;-62
2022/11/27 10:03:44;;;;;;;9.25;4.65;;;;;;;8.05;100.00;101956.78;4970426;28;20046;-64
2022/11/27 10:06:33;;;;;;;12.82;4.75;;;;;;;8.15;100.00;101956.72;4970199;28;20018;-62
2022/11/27 10:09:08;;;;;;;9.27;3.97;;;;;;;8.13;100.00;101958.50;4983878;28;20476;-64
2022/11/27 10:12:04;;;;;;;9.63;3.95;;;;;;;8.20;100.00;101963.72;4987498;28;20025;-59
2022/11/27 10:14:56;;;;;;;9.60;3.90;;;;;;;8.07;100.00;101954.16;4982067;28;20125;-63
2022/11/27 10:17:44;;;;;;;10.52;4.70;;;;;;;8.19;100.00;101961.09;4986194;28;20034;-64
2022/11/27 10:20:15;;;;;;;9.73;4.47;;;;;;;8.13;100.00;101953.25;4969940;28;20153;-61
2022/11/27 10:22:59;;;;;;;13.20;4.65;;;;;;;8.11;100.00;101945.38;4985722;28;20026;-62
2022/11/27 10:25:43;;;;;;;8.68;4.40;;;;;;;8.24;100.00;101938.28;4981370;28;20057;-62
2022/11/27 10:28:33;;;;;;;11.98;4.70;;;;;;;8.09;100.00;101937.50;4986209;28;20027;-62
2022/11/27 10:31:09;;;;;;;9.75;5.05;;;;;;;8.17;100.00;101936.59;4963452;28;20046;-62
2022/11/27 10:33:53;;;;;;;12.45;4.75;;;;;;;8.26;100.00;101941.78;4971791;28;20144;-61
2022/11/27 10:36:27;;;;;;;10.13;4.60;;;;;;;8.37;100.00;101933.81;4989325;28;20045;-62
2022/11/27 10:38:54;;;;;;;13.88;4.55;;;;;;;8.40;100.00;101936.41;4997798;28;20026;-59
2022/11/27 10:41:33;;;;;;;11.80;3.92;;;;;;;8.41;100.00;101937.31;4987459;28;20049;-62
2022/11/27 10:44:13;;;;;;;12.82;6.10;;;;;;;8.58;100.00;101930.19;4968789;28;20034;-62
2022/11/27 10:46:38;;;;;;;5.70;3.67;;;;;;;8.53;100.00;101929.34;4986360;28;20473;-61
2022/11/27 10:49:04;;;;;;;15.07;5.22;;;;;;;8.40;100.00;101927.69;4987678;28;20054;-66
2022/11/27 10:51:33;;;;;;;12.80;5.10;;;;;;;8.57;100.00;101920.59;4987481;28;20117;-61
2022/11/27 10:53:59;;;;;;;10.73;4.53;;;;;;;8.36;100.00;101915.47;4969555;28;20072;-64
2022/11/27 10:56:46;;;;;;;7.85;4.53;;;;;;;8.45;100.00;101903.13;4987715;28;20051;-61
2022/11/27 10:59:20;;;;;;;10.50;4.20;;;;;;;8.58;100.00;101888.16;4996880;28;20038;-60
2022/11/27 11:01:49;;;;;;;14.68;5.55;;;;;;;8.64;100.00;101874.09;4988401;28;20477;-62
2022/11/27 11:04:24;;;;;;;10.30;5.28;;;;;;;8.66;100.00;101868.81;4985722;28;20046;-61
2022/11/27 11:06:50;;;;;;;9.77;4.68;;;;;;;8.66;100.00;101868.81;4986935;28;20022;-62
2022/11/27 11:09:30;;;;;;;11.07;4.55;;;;;;;8.65;100.00;101874.97;4980974;28;20037;-61
2022/11/27 11:12:19;;;;;;;9.60;3.92;;;;;;;8.71;100.00;101869.66;4977869;28;20509;-60
2022/11/27 11:14:52;;;;;;;9.15;4.18;;;;;;;8.85;100.00;101859.88;4985130;28;20101;-59
2022/11/27 11:17:24;;;;;;;11.38;4.55;;;;;;;8.91;100.00;101858.09;4993171;28;20075;-60
2022/11/27 11:19:50;;;;;;;10.13;4.80;;;;;;;8.79;100.00;101859.94;4987749;28;20076;-61
2022/11/27 11:22:15;;;;;;;10.00;4.57;;;;;;;8.88;100.00;101858.97;4986865;28;20026;-60
2022/11/27 11:24:48;;;;;;;12.00;4.93;;;;;;;8.93;100.00;101848.41;4984620;28;20033;-62
2022/11/27 11:27:19;;;;;;;9.30;5.22;;;;;;;8.75;100.00;101865.22;4986310;28;20058;-59
2022/11/27 11:29:48;;;;;;;9.48;4.22;;;;;;;8.72;100.00;101859.16;4968950;28;20019;-60